Time;durP1;ratioP1;P1;durP2;ratioP2;P2;SDS_P1;SDS_P2;PMS_P1;PMS_P2;Temp;Humidity;BMP_temperature;BMP_pressure;BME280_temperature;BME280_humidity;BME280_pressure;Samples;Min_cycle;Max_cycle;Signal;HPM_P1;HPM_P2
2023/01/13 00:01:11;;;;;;;6.32;2.13;;;;;;;9.14;100.00;99567.53;5017777;28;20653;-45
2023/01/13 00:03:36;;;;;;;4.88;2.40;;;;;;;9.11;100.00;99558.78;5019477;28;20199;-48
2023/01/13 00:06:03;;;;;;;8.57;2.42;;;;;;;9.10;100.00;99582.00;5019694;28;20204;-47
2023/01/13 00:08:30;;;;;;;5.22;2.45;;;;;;;9.03;100.00;99608.16;5015397;28;20298;-48
2023/01/13 00:10:55;;;;;;;23.80;4.50;;;;;;;8.02;100.00;99611.34;5023180;28;20188;-49
2023/01/13 00:13:25;;;;;;;20.27;4.22;;;;;;;7.64;100.00;99627.28;5016854;28;20196;-47
2023/01/13 00:16:02;;;;;;;26.38;4.38;;;;;;;7.62;100.00;99620.31;5015019;28;20188;-50
2023/01/13 00:18:28;;;;;;;11.60;2.85;;;;;;;7.69;100.00;99603.09;5022664;28;20177;-46
2023/01/13 00:21:07;;;;;;;12.98;2.70;;;;;;;7.69;100.00;99608.41;5017338;28;20685;-48
2023/01/13 00:23:34;;;;;;;16.38;3.05;;;;;;;7.61;100.00;99602.59;5018859;28;20662;-48
2023/01/13 00:26:03;;;;;;;13.73;3.20;;;;;;;7.58;100.00;99598.25;5019528;28;20204;-50
2023/01/13 00:28:28;;;;;;;18.63;3.42;;;;;;;7.47;100.00;99603.19;5022783;28;20211;-47
2023/01/13 00:30:57;;;;;;;13.95;2.60;;;;;;;7.48;100.00;99609.38;5030036;28;20184;-44
2023/01/13 00:33:24;;;;;;;18.50;4.18;;;;;;;7.43;100.00;99602.50;5030422;28;20286;-46
2023/01/13 00:35:57;;;;;;;15.80;3.05;;;;;;;7.34;100.00;99592.22;5019431;28;20696;-46
2023/01/13 00:38:23;;;;;;;16.95;3.08;;;;;;;7.39;100.00;99582.25;5037753;28;20196;-46
2023/01/13 00:41:18;;;;;;;16.02;3.35;;;;;;;7.36;100.00;99595.69;5022186;28;20184;-46
2023/01/13 00:43:44;;;;;;;20.75;3.72;;;;;;;7.25;100.00;99611.28;5018094;28;20204;-47
2023/01/13 00:46:12;;;;;;;15.65;3.20;;;;;;;7.19;100.00;99603.56;5015645;28;20238;-47
2023/01/13 00:48:37;;;;;;;19.63;3.67;;;;;;;7.19;100.00;99592.91;5023080;28;20200;-46
2023/01/13 00:51:09;;;;;;;19.35;3.25;;;;;;;7.15;100.00;99596.63;5023897;28;20735;-46
2023/01/13 00:53:37;;;;;;;17.48;3.70;;;;;;;7.06;100.00;99600.56;5023096;28;20606;-47
2023/01/13 00:56:03;;;;;;;21.25;3.60;;;;;;;6.98;100.00;99606.25;5020292;28;20223;-46
2023/01/13 00:58:31;;;;;;;15.40;2.85;;;;;;;6.97;100.00;99609.81;5025448;28;20192;-46
2023/01/13 01:01:06;;;;;;;19.23;3.47;;;;;;;6.97;100.00;99615.13;5022084;28;20181;-46
2023/01/13 01:03:32;;;;;;;22.02;3.58;;;;;;;6.98;100.00;99610.69;5025646;28;20184;-45
2023/01/13 01:06:08;;;;;;;21.63;3.58;;;;;;;6.97;100.00;99611.63;5023454;28;20262;-46
2023/01/13 01:08:34;;;;;;;16.63;3.70;;;;;;;6.97;100.00;99616.94;5021921;28;20760;-45
2023/01/13 01:11:15;;;;;;;20.85;4.03;;;;;;;6.91;100.00;99612.78;5022005;28;20191;-46
2023/01/13 01:13:41;;;;;;;27.95;3.92;;;;;;;6.93;100.00;99618.91;5029445;28;20261;-47
2023/01/13 01:16:09;;;;;;;22.98;3.95;;;;;;;6.92;100.00;99619.81;5022585;28;20296;-46
2023/01/13 01:18:37;;;;;;;22.20;4.93;;;;;;;6.95;100.00;99626.78;5015018;28;20263;-47
2023/01/13 01:21:03;;;;;;;27.15;4.45;;;;;;;6.95;100.00;99613.47;5032171;28;20681;-46
2023/01/13 01:23:30;;;;;;;20.58;4.75;;;;;;;7.01;100.00;99627.41;5024785;28;20577;-47
2023/01/13 01:26:02;;;;;;;22.58;4.10;;;;;;;7.01;100.00;99616.75;5026517;28;20542;-46
2023/01/13 01:28:28;;;;;;;23.20;4.22;;;;;;;7.01;100.00;99632.72;5022888;28;20199;-46
2023/01/13 01:30:54;;;;;;;31.02;4.70;;;;;;;6.89;100.00;99619.94;5018265;28;20181;-47
2023/01/13 01:33:20;;;;;;;22.83;4.13;;;;;;;6.92;100.00;99621.63;5027533;28;20211;-46
2023/01/13 01:35:46;;;;;;;27.40;4.25;;;;;;;6.89;100.00;99617.28;5022811;28;20204;-47
2023/01/13 01:38:12;;;;;;;27.88;3.80;;;;;;;6.87;100.00;99635.13;5020948;28;20180;-48
2023/01/13 01:40:38;;;;;;;27.92;4.60;;;;;;;6.78;100.00;99631.06;5018127;28;20184;-49
2023/01/13 01:45:57;;;;;;;25.77;4.80;;;;;;;6.73;100.00;99642.81;5023617;28;20720;-49
2023/01/13 01:48:23;;;;;;;31.02;5.10;;;;;;;6.79;100.00;99643.41;5018513;28;20213;-45
2023/01/13 01:50:51;;;;;;;27.02;4.00;;;;;;;6.74;100.00;99652.53;5018712;28;20211;-44
2023/01/13 01:53:21;;;;;;;26.48;4.53;;;;;;;6.75;100.00;99648.94;5022272;28;20246;-46
2023/01/13 01:55:46;;;;;;;31.30;4.78;;;;;;;6.76;100.00;99645.38;5019411;28;20583;-47
2023/01/13 01:58:21;;;;;;;31.33;5.10;;;;;;;6.74;100.00;99663.19;5021123;28;20184;-45
2023/01/13 02:00:47;;;;;;;24.27;5.05;;;;;;;6.72;100.00;99638.44;5017742;28;20178;-45
2023/01/13 02:03:15;;;;;;;23.30;3.85;;;;;;;6.73;100.00;99650.78;5020942;28;20222;-45
2023/01/13 02:05:40;;;;;;;24.60;4.72;;;;;;;6.71;100.00;99653.53;5015173;28;20195;-44
2023/01/13 02:08:08;;;;;;;20.02;4.35;;;;;;;6.72;100.00;99649.06;5019767;28;20195;-44
2023/01/13 02:10:35;;;;;;;20.90;4.18;;;;;;;6.62;100.00;99637.06;5024733;28;20192;-47
2023/01/13 02:13:06;;;;;;;18.90;3.45;;;;;;;6.56;100.00;99639.06;5019007;28;20187;-46
2023/01/13 02:15:56;;;;;;;25.95;3.67;;;;;;;6.53;100.00;99630.31;5023656;28;20246;-47
2023/01/13 02:19:13;;;;;;;22.02;3.40;;;;;;;6.45;100.00;99630.66;5016011;28;20612;-46
2023/01/13 02:21:39;;;;;;;19.42;3.45;;;;;;;6.41;100.00;99639.69;5020113;28;20189;-45
2023/01/13 02:27:39;;;;;;;22.45;3.72;;;;;;;6.38;100.00;99634.47;5015281;28;20203;-46
2023/01/13 02:33:16;;;;;;;25.90;3.90;;;;;;;6.31;100.00;99631.19;5013908;28;20172;-45
2023/01/13 02:36:13;;;;;;;19.73;4.03;;;;;;;6.30;100.00;99620.63;5020391;28;20204;-45
2023/01/13 02:38:53;;;;;;;17.30;3.42;;;;;;;6.27;100.00;99626.06;5022435;28;20172;-45
2023/01/13 02:44:35;;;;;;;20.30;3.25;;;;;;;6.22;100.00;99630.69;5018094;28;20195;-45
2023/01/13 02:47:07;;;;;;;20.15;3.30;;;;;;;6.12;100.00;99624.88;5016610;28;20222;-47
2023/01/13 02:49:37;;;;;;;14.82;3.20;;;;;;;6.13;100.00;99634.59;5019488;28;20176;-46
2023/01/13 02:52:12;;;;;;;16.60;4.07;;;;;;;6.06;100.00;99627.78;5014450;28;21059;-45
2023/01/13 02:54:44;;;;;;;19.98;3.70;;;;;;;6.05;100.00;99624.25;5011553;28;20690;-46
2023/01/13 02:57:13;;;;;;;17.90;3.30;;;;;;;6.06;100.00;99620.66;5023679;28;20192;-47
2023/01/13 02:59:40;;;;;;;23.85;3.97;;;;;;;5.95;100.00;99614.91;5028614;28;20174;-47
2023/01/13 03:02:09;;;;;;;22.60;4.00;;;;;;;5.92;100.00;99625.63;5019577;28;20570;-44
2023/01/13 03:04:46;;;;;;;20.30;4.55;;;;;;;5.88;100.00;99619.56;5018956;28;20738;-41
2023/01/13 03:07:19;;;;;;;25.65;3.67;;;;;;;5.91;100.00;99630.06;5030215;28;20234;-41
2023/01/13 03:09:59;;;;;;;24.73;4.50;;;;;;;5.95;100.00;99625.53;5021124;28;20189;-48
2023/01/13 03:12:37;;;;;;;23.70;3.85;;;;;;;5.89;100.00;99628.41;5013476;28;20168;-48
2023/01/13 03:15:23;;;;;;;19.48;3.47;;;;;;;5.88;100.00;99642.59;5011471;28;20200;-47
2023/01/13 03:18:07;;;;;;;24.17;4.32;;;;;;;5.76;100.00;99631.50;5014485;28;20188;-48
2023/01/13 03:20:40;;;;;;;19.63;3.38;;;;;;;5.76;100.00;99636.81;5018249;28;20192;-47
2023/01/13 03:23:16;;;;;;;23.33;4.15;;;;;;;5.85;100.00;99638.28;5022305;28;20512;-46
2023/01/13 03:25:55;;;;;;;33.78;4.63;;;;;;;5.78;100.00;99624.34;5010481;28;20537;-43
2023/01/13 03:28:31;;;;;;;21.50;5.05;;;;;;;5.82;100.00;99640.19;5010310;28;20715;-44
2023/01/13 03:31:03;;;;;;;25.27;4.80;;;;;;;5.80;100.00;99624.31;5024985;28;20210;-46
2023/01/13 03:33:44;;;;;;;25.92;4.05;;;;;;;5.81;100.00;99630.47;5017627;28;20215;-44
2023/01/13 03:36:13;;;;;;;23.50;4.65;;;;;;;5.82;100.00;99637.53;5021295;28;20221;-47
2023/01/13 03:38:46;;;;;;;18.52;3.72;;;;;;;5.82;100.00;99626.91;5036853;28;20186;-44
2023/01/13 03:41:30;;;;;;;25.55;4.78;;;;;;;5.81;100.00;99636.66;5023156;28;20168;-44
2023/01/13 03:44:21;;;;;;;23.60;3.67;;;;;;;5.95;100.00;99636.19;5020537;28;20586;-44
2023/01/13 03:46:58;;;;;;;23.95;4.03;;;;;;;5.87;100.00;99641.75;5018016;28;20231;-44
2023/01/13 03:49:32;;;;;;;23.13;4.82;;;;;;;5.89;100.00;99641.69;5016562;28;20245;-44
2023/01/13 03:52:04;;;;;;;24.35;3.97;;;;;;;5.82;100.00;99629.56;5021474;28;20168;-45
2023/01/13 03:54:35;;;;;;;24.40;4.40;;;;;;;5.82;100.00;99632.22;5020467;28;20304;-44
2023/01/13 03:57:09;;;;;;;20.92;4.35;;;;;;;5.80;100.00;99634.06;5017205;28;20263;-47
2023/01/13 03:59:40;;;;;;;23.15;4.00;;;;;;;5.80;100.00;99636.72;5021123;28;20564;-45
2023/01/13 04:02:11;;;;;;;27.98;4.10;;;;;;;5.87;100.00;99646.19;5025457;28;20455;-43
2023/01/13 04:04:47;;;;;;;28.88;4.40;;;;;;;5.88;100.00;99640.84;5021000;28;20629;-44
2023/01/13 04:07:19;;;;;;;28.13;4.68;;;;;;;5.82;100.00;99642.84;5022039;28;20219;-43
2023/01/13 04:09:51;;;;;;;28.25;3.88;;;;;;;5.76;100.00;99650.13;5022841;28;20910;-42
2023/01/13 04:12:59;;;;;;;19.73;4.20;;;;;;;5.78;100.00;99636.78;5022621;28;20267;-46
2023/01/13 04:15:28;;;;;;;24.95;4.57;;;;;;;5.73;100.00;99636.09;5023222;28;20232;-43
2023/01/13 04:18:01;;;;;;;25.52;4.30;;;;;;;5.72;100.00;99644.97;5023680;28;20652;-44
2023/01/13 04:20:27;;;;;;;26.20;3.83;;;;;;;5.78;100.00;99634.97;5019457;28;20820;-42
2023/01/13 04:22:52;;;;;;;23.75;4.32;;;;;;;5.77;100.00;99637.69;5022687;28;20179;-45
2023/01/13 04:25:18;;;;;;;28.15;5.00;;;;;;;5.76;100.00;99638.63;5021637;28;20195;-44
2023/01/13 04:27:43;;;;;;;25.98;4.00;;;;;;;5.82;100.00;99637.53;5021213;28;20690;-48
2023/01/13 04:30:09;;;;;;;19.25;3.92;;;;;;;5.84;100.00;99630.34;5025149;28;20180;-47
2023/01/13 04:32:35;;;;;;;28.05;4.72;;;;;;;5.83;100.00;99631.28;5032521;28;20220;-48
2023/01/13 04:35:00;;;;;;;27.38;4.53;;;;;;;5.80;100.00;99626.09;5024606;28;20329;-48
2023/01/13 04:37:26;;;;;;;21.25;4.10;;;;;;;5.76;100.00;99626.19;5018684;28;20168;-46
2023/01/13 04:39:51;;;;;;;23.48;4.53;;;;;;;5.81;100.00;99628.69;5025109;28;20192;-46
2023/01/13 04:42:17;;;;;;;23.70;4.57;;;;;;;5.86;100.00;99631.16;5023321;28;20431;-47
2023/01/13 04:44:42;;;;;;;29.30;4.82;;;;;;;5.88;100.00;99619.56;5021380;28;20203;-46
2023/01/13 04:47:08;;;;;;;26.50;4.28;;;;;;;5.82;100.00;99621.59;5019089;28;20205;-48
2023/01/13 04:49:33;;;;;;;26.60;4.80;;;;;;;5.82;100.00;99626.91;5022548;28;20231;-49
2023/01/13 04:51:59;;;;;;;24.98;4.80;;;;;;;5.83;100.00;99618.84;5027135;28;20551;-48
2023/01/13 04:54:24;;;;;;;20.38;4.10;;;;;;;5.88;100.00;99608.94;5024015;28;20195;-46
2023/01/13 04:56:49;;;;;;;26.55;5.68;;;;;;;5.87;100.00;99608.97;5021720;28;20220;-47
2023/01/13 04:59:15;;;;;;;23.15;4.68;;;;;;;5.91;100.00;99607.94;5021144;28;20177;-47
2023/01/13 05:01:40;;;;;;;24.65;4.57;;;;;;;5.96;100.00;99606.84;5023264;28;20375;-46
2023/01/13 05:04:06;;;;;;;27.00;4.80;;;;;;;5.93;100.00;99608.75;5020594;28;20180;-50
2023/01/13 05:06:32;;;;;;;27.58;4.82;;;;;;;5.88;100.00;99602.72;5022185;28;20183;-48
2023/01/13 05:08:57;;;;;;;25.42;4.75;;;;;;;5.85;100.00;99611.69;5021902;28;20270;-46
2023/01/13 05:17:00;;;;;;;29.73;5.75;;;;;;;5.86;100.00;99613.44;5017666;28;20662;-48
2023/01/13 05:19:32;;;;;;;30.40;5.50;;;;;;;5.90;100.00;99592.91;5021357;28;20194;-46
2023/01/13 05:27:29;;;;;;;26.85;5.97;;;;;;;5.96;100.00;99609.50;5020385;28;20196;-46
2023/01/13 05:29:54;;;;;;;32.60;5.95;;;;;;;6.01;100.00;99597.84;5019927;28;20189;-47
2023/01/13 05:32:21;;;;;;;31.35;5.00;;;;;;;5.96;100.00;99611.31;5021409;28;20180;-48
2023/01/13 05:34:46;;;;;;;23.08;5.20;;;;;;;5.94;100.00;99605.16;5020240;28;20288;-47
2023/01/13 05:37:12;;;;;;;32.42;5.18;;;;;;;5.99;100.00;99603.19;5028456;28;20267;-46
2023/01/13 05:45:07;;;;;;;36.00;5.85;;;;;;;5.95;100.00;99609.59;5020820;28;20620;-47
2023/01/13 05:47:32;;;;;;;28.90;5.15;;;;;;;6.00;100.00;99602.28;5019843;28;20339;-48
2023/01/13 05:49:57;;;;;;;28.80;4.72;;;;;;;5.94;100.00;99605.16;5019550;28;20231;-47
2023/01/13 05:52:23;;;;;;;25.90;5.03;;;;;;;5.89;100.00;99608.00;5019621;28;20278;-49
2023/01/13 05:54:49;;;;;;;28.88;5.45;;;;;;;5.95;100.00;99593.66;5018826;28;20211;-46
2023/01/13 05:57:15;;;;;;;37.13;6.47;;;;;;;5.98;100.00;99601.50;5015728;28;20196;-49
2023/01/13 05:59:41;;;;;;;25.98;4.38;;;;;;;5.98;100.00;99594.38;5018151;28;20184;-46
2023/01/13 06:02:07;;;;;;;36.05;5.60;;;;;;;5.94;100.00;99597.19;5020659;28;20185;-46
2023/01/13 06:04:32;;;;;;;32.28;5.85;;;;;;;5.94;100.00;99590.09;5016574;28;20215;-48
2023/01/13 06:06:58;;;;;;;26.73;5.63;;;;;;;5.86;100.00;99578.88;5023818;28;20562;-46
2023/01/13 06:09:23;;;;;;;33.10;5.68;;;;;;;5.84;100.00;99588.72;5018954;28;20216;-48
2023/01/13 06:11:49;;;;;;;23.05;4.45;;;;;;;5.82;100.00;99587.03;5019480;28;20167;-49
2023/01/13 06:14:14;;;;;;;33.47;5.07;;;;;;;5.84;100.00;99577.19;5023565;28;20192;-47
2023/01/13 06:16:40;;;;;;;33.33;5.82;;;;;;;5.84;100.00;99582.50;5017718;28;20196;-49
2023/01/13 06:19:11;;;;;;;35.05;5.40;;;;;;;5.80;100.00;99584.44;5019889;28;20188;-48
2023/01/13 06:21:38;;;;;;;23.65;5.25;;;;;;;5.82;100.00;99587.03;5021340;28;20195;-48
2023/01/13 06:24:04;;;;;;;24.95;5.00;;;;;;;5.77;100.00;99587.19;5019125;28;20669;-48
2023/01/13 06:26:35;;;;;;;27.38;4.60;;;;;;;5.81;100.00;99588.81;5020743;28;20176;-47
2023/01/13 06:29:01;;;;;;;32.25;5.55;;;;;;;5.80;100.00;99595.06;5016770;28;20213;-47
2023/01/13 06:31:27;;;;;;;33.67;4.93;;;;;;;5.81;100.00;99588.81;5018571;28;20172;-46
2023/01/13 06:33:59;;;;;;;25.23;4.25;;;;;;;5.74;100.00;99588.19;5018893;28;20195;-48
2023/01/13 06:36:34;;;;;;;33.15;4.75;;;;;;;5.71;100.00;99585.66;5017959;28;20677;-48
2023/01/13 06:39:02;;;;;;;29.23;4.95;;;;;;;5.73;100.00;99589.13;5019069;28;20223;-48
2023/01/13 06:44:15;;;;;;;24.17;4.88;;;;;;;5.84;100.00;99579.84;5013983;28;20655;-47
2023/01/13 06:46:41;;;;;;;27.13;5.10;;;;;;;5.85;100.00;99584.25;5027154;28;20654;-47
2023/01/13 06:49:06;;;;;;;24.35;4.30;;;;;;;5.82;100.00;99589.69;5018108;28;20207;-45
2023/01/13 06:51:32;;;;;;;28.50;5.68;;;;;;;5.78;100.00;99578.31;5014387;28;20304;-48
2023/01/13 06:53:58;;;;;;;27.85;5.93;;;;;;;5.72;100.00;99587.38;5027778;28;20200;-46
2023/01/13 06:56:23;;;;;;;23.90;4.85;;;;;;;5.73;100.00;99573.19;5015885;28;20195;-47
2023/01/13 06:58:48;;;;;;;21.10;4.15;;;;;;;5.77;100.00;99576.56;5016444;28;20179;-49
2023/01/13 07:01:14;;;;;;;29.95;5.45;;;;;;;5.74;100.00;99580.22;5023067;28;20184;-48
2023/01/13 07:03:39;;;;;;;21.48;4.53;;;;;;;5.74;100.00;99566.91;5018959;28;20548;-47
2023/01/13 07:06:05;;;;;;;21.90;4.55;;;;;;;5.75;100.00;99581.97;5017349;28;20699;-47
2023/01/13 07:08:31;;;;;;;21.98;4.75;;;;;;;5.75;100.00;99581.97;5019250;28;20201;-42
2023/01/13 07:10:56;;;;;;;21.60;4.38;;;;;;;5.78;100.00;99581.81;5028445;28;20171;-46
2023/01/13 07:16:09;;;;;;;25.15;4.15;;;;;;;5.72;100.00;99574.09;5016931;28;20205;-47
2023/01/13 07:18:35;;;;;;;30.90;4.28;;;;;;;5.71;100.00;99572.38;5024532;28;20184;-46
2023/01/13 07:21:09;;;;;;;20.90;4.15;;;;;;;5.82;100.00;99571.94;5018180;28;20210;-44
2023/01/13 07:23:38;;;;;;;26.40;5.05;;;;;;;5.70;100.00;99577.72;5015518;28;20172;-46
2023/01/13 07:26:04;;;;;;;22.75;4.47;;;;;;;5.62;100.00;99572.72;5020358;28;20236;-46
2023/01/13 07:28:30;;;;;;;22.10;3.92;;;;;;;5.67;100.00;99568.09;5017405;28;20200;-47
2023/01/13 07:30:57;;;;;;;29.35;4.82;;;;;;;5.71;100.00;99569.72;5014828;28;20238;-45
2023/01/13 07:33:23;;;;;;;23.95;4.25;;;;;;;5.70;100.00;99557.34;5025504;28;20685;-48
2023/01/13 07:35:56;;;;;;;27.80;4.47;;;;;;;5.73;100.00;99559.88;5037889;28;20250;-48
2023/01/13 07:38:21;;;;;;;31.08;5.43;;;;;;;5.74;100.00;99561.59;5019981;28;20771;-46
2023/01/13 07:40:47;;;;;;;25.55;4.78;;;;;;;5.72;100.00;99562.59;5026084;28;20260;-46
2023/01/13 07:43:31;;;;;;;23.48;4.72;;;;;;;5.76;100.00;99551.78;5016774;28;20187;-47
2023/01/13 07:46:01;;;;;;;23.67;4.00;;;;;;;5.83;100.00;99560.38;5024432;28;20728;-46
2023/01/13 07:48:28;;;;;;;22.05;4.97;;;;;;;5.91;100.00;99562.75;5021253;28;20204;-46
2023/01/13 07:50:54;;;;;;;21.48;4.43;;;;;;;5.91;100.00;99563.63;5021189;28;20270;-46
2023/01/13 07:53:20;;;;;;;27.10;4.07;;;;;;;5.99;100.00;99571.31;5022504;28;20195;-46
2023/01/13 07:55:46;;;;;;;20.55;5.18;;;;;;;6.01;100.00;99564.13;5021711;28;20204;-46
2023/01/13 07:58:12;;;;;;;26.08;4.97;;;;;;;6.05;100.00;99555.09;5018381;28;20652;-48
2023/01/13 08:00:37;;;;;;;22.13;4.15;;;;;;;6.10;100.00;99557.59;5013004;28;20383;-47
2023/01/13 08:03:03;;;;;;;18.55;4.15;;;;;;;6.08;100.00;99562.09;5025446;28;20721;-45
2023/01/13 08:05:29;;;;;;;28.50;5.78;;;;;;;6.08;100.00;99570.06;5021148;28;20675;-45
2023/01/13 08:07:55;;;;;;;23.00;4.78;;;;;;;6.11;100.00;99554.88;5018917;28;20212;-45
2023/01/13 08:10:20;;;;;;;27.92;5.20;;;;;;;6.08;100.00;99552.34;5022583;28;20673;-44
2023/01/13 08:15:31;;;;;;;27.63;4.72;;;;;;;6.09;100.00;99558.53;5021647;28;20195;-47
2023/01/13 08:17:58;;;;;;;28.98;5.05;;;;;;;6.07;100.00;99547.09;5016704;28;20220;-48
2023/01/13 08:20:24;;;;;;;29.13;4.32;;;;;;;6.12;100.00;99550.41;5022945;28;20180;-46
2023/01/13 08:22:50;;;;;;;26.75;4.82;;;;;;;6.11;100.00;99556.66;5019719;28;20199;-47
2023/01/13 08:25:16;;;;;;;26.55;4.38;;;;;;;6.10;100.00;99550.50;5014998;28;20580;-47
2023/01/13 08:27:42;;;;;;;27.15;4.72;;;;;;;6.15;100.00;99548.50;5023690;28;20279;-45
2023/01/13 08:30:08;;;;;;;21.98;4.40;;;;;;;6.17;100.00;99546.66;5017087;28;20664;-46
2023/01/13 08:32:33;;;;;;;26.17;4.40;;;;;;;6.17;100.00;99554.63;5019544;28;20292;-46
2023/01/13 08:34:59;;;;;;;21.40;4.00;;;;;;;6.17;100.00;99548.44;5020616;28;20496;-47
2023/01/13 08:37:25;;;;;;;22.95;4.53;;;;;;;6.22;100.00;99551.78;5028420;28;20179;-44
2023/01/13 08:39:50;;;;;;;22.90;4.40;;;;;;;6.25;100.00;99543.66;5023166;28;20203;-45
2023/01/13 08:42:16;;;;;;;24.98;4.57;;;;;;;6.29;100.00;99553.25;5020901;28;20217;-47
2023/01/13 08:44:41;;;;;;;25.73;4.60;;;;;;;6.29;100.00;99539.09;5019400;28;20200;-45
2023/01/13 08:47:07;;;;;;;31.20;4.50;;;;;;;6.32;100.00;99549.59;5019935;28;20572;-47
2023/01/13 08:49:32;;;;;;;27.67;4.30;;;;;;;6.34;100.00;99539.75;5022922;28;20266;-43
2023/01/13 08:51:58;;;;;;;26.58;5.18;;;;;;;6.40;100.00;99544.81;5022701;28;20184;-45
2023/01/13 08:54:23;;;;;;;25.58;4.60;;;;;;;6.47;100.00;99548.97;5021462;28;20322;-45
2023/01/13 08:56:49;;;;;;;26.85;4.72;;;;;;;6.44;100.00;99541.09;5023257;28;20180;-46
2023/01/13 08:59:17;;;;;;;24.80;4.82;;;;;;;6.43;100.00;99551.81;5020170;28;20222;-46
2023/01/13 09:01:43;;;;;;;21.75;4.20;;;;;;;6.39;100.00;99543.97;5021354;28;20216;-46
2023/01/13 09:04:18;;;;;;;26.35;4.72;;;;;;;6.40;100.00;99543.03;5015988;28;20226;-46
2023/01/13 09:06:44;;;;;;;24.98;4.60;;;;;;;6.36;100.00;99538.78;5028347;28;21868;-45
2023/01/13 09:09:09;;;;;;;23.70;4.10;;;;;;;6.37;100.00;99539.66;5018616;28;20287;-46
2023/01/13 09:14:25;;;;;;;27.00;5.05;;;;;;;6.43;100.00;99534.06;5024223;28;20348;-46
2023/01/13 09:16:51;;;;;;;22.52;4.25;;;;;;;6.48;100.00;99536.53;5021916;28;20176;-46
2023/01/13 09:19:16;;;;;;;21.95;4.18;;;;;;;6.47;100.00;99537.44;5023022;28;20755;-47
2023/01/13 09:21:42;;;;;;;29.20;5.00;;;;;;;6.52;100.00;99530.16;5020263;28;20216;-48
2023/01/13 09:24:08;;;;;;;25.20;4.50;;;;;;;6.54;100.00;99547.78;5019852;28;20594;-47
2023/01/13 09:26:33;;;;;;;26.63;4.93;;;;;;;6.62;100.00;99539.47;5020933;28;20259;-48
2023/01/13 09:28:59;;;;;;;20.45;4.80;;;;;;;6.65;100.00;99533.13;5018986;28;20298;-48
2023/01/13 09:31:24;;;;;;;26.02;4.78;;;;;;;6.65;100.00;99531.34;5022867;28;20181;-47
2023/01/13 09:36:34;;;;;;;19.60;3.80;;;;;;;6.59;100.00;99552.91;5021670;28;20560;-48
2023/01/13 09:38:59;;;;;;;20.27;4.40;;;;;;;6.50;100.00;99553.31;5020360;28;20258;-47
2023/01/13 09:44:24;;;;;;;24.27;4.80;;;;;;;6.36;100.00;99568.03;5033223;28;20183;-47
2023/01/13 09:46:55;;;;;;;20.77;4.70;;;;;;;6.29;100.00;99563.88;5019282;28;20227;-49
2023/01/13 09:49:37;;;;;;;18.48;4.35;;;;;;;6.26;100.00;99565.81;5016564;28;20283;-49
2023/01/13 09:52:10;;;;;;;28.42;4.40;;;;;;;6.27;100.00;99568.41;5020430;28;20192;-47
2023/01/13 09:54:41;;;;;;;21.02;4.00;;;;;;;6.25;100.00;99564.94;5018406;28;20221;-47
2023/01/13 09:57:12;;;;;;;19.65;4.20;;;;;;;6.30;100.00;99573.63;5012350;28;20210;-48
2023/01/13 09:59:38;;;;;;;29.25;4.90;;;;;;;6.24;100.00;99568.53;5026010;28;20552;-48
2023/01/13 10:02:36;;;;;;;22.00;4.50;;;;;;;6.25;100.00;99574.72;5017379;28;20275;-48
2023/01/13 10:05:23;;;;;;;18.23;3.92;;;;;;;6.13;100.00;99563.66;5016682;28;20195;-49
2023/01/13 10:08:04;;;;;;;25.42;4.38;;;;;;;6.11;100.00;99570.81;5019111;28;20302;-47
2023/01/13 10:10:42;;;;;;;17.52;3.28;;;;;;;6.14;100.00;99554.75;5015951;28;20205;-47
2023/01/13 10:13:15;;;;;;;23.83;4.63;;;;;;;6.07;100.00;99563.03;5018230;28;20184;-46
2023/01/13 10:15:47;;;;;;;18.70;3.78;;;;;;;6.10;100.00;99573.53;5018015;28;20923;-47
2023/01/13 10:18:26;;;;;;;13.95;3.60;;;;;;;6.02;100.00;99571.19;5014633;28;20189;-46
2023/01/13 10:20:59;;;;;;;20.63;4.00;;;;;;;6.06;100.00;99563.97;5022067;28;20168;-46
2023/01/13 10:23:51;;;;;;;19.50;3.55;;;;;;;6.11;100.00;99568.16;5019550;28;20188;-48
2023/01/13 10:26:23;;;;;;;17.55;3.75;;;;;;;6.17;100.00;99565.25;5013518;28;20610;-45
2023/01/13 10:28:53;;;;;;;18.77;3.45;;;;;;;6.27;100.00;99571.06;5015497;28;20208;-46
2023/01/13 10:31:21;;;;;;;25.83;4.80;;;;;;;6.27;100.00;99563.06;5017918;28;20302;-50
2023/01/13 10:33:48;;;;;;;18.23;3.55;;;;;;;6.29;100.00;99555.91;5002649;28;20182;-47
2023/01/13 10:36:21;;;;;;;23.92;4.07;;;;;;;6.34;100.00;99566.34;5014272;28;20299;-48
2023/01/13 10:38:49;;;;;;;15.40;2.97;;;;;;;6.45;100.00;99564.13;5024151;28;20190;-48
2023/01/13 10:41:14;;;;;;;17.60;3.47;;;;;;;6.39;100.00;99567.91;5018865;28;20187;-45
2023/01/13 10:43:44;;;;;;;14.82;3.65;;;;;;;6.44;100.00;99550.88;5019359;28;20192;-48
2023/01/13 10:46:14;;;;;;;15.82;2.60;;;;;;;6.40;100.00;99555.47;5022217;28;20215;-48
2023/01/13 10:48:41;;;;;;;15.48;3.15;;;;;;;6.46;100.00;99549.03;5018240;28;20204;-46
2023/01/13 10:51:12;;;;;;;17.83;3.30;;;;;;;6.44;100.00;99550.88;5016908;28;20187;-47
2023/01/13 10:54:11;;;;;;;14.38;3.17;;;;;;;6.39;100.00;99561.72;5021895;28;20190;-47
2023/01/13 10:56:38;;;;;;;13.63;2.47;;;;;;;6.35;100.00;99552.13;5001026;28;20212;-45
2023/01/13 10:59:16;;;;;;;16.05;3.00;;;;;;;6.30;100.00;99532.84;5019207;28;20193;-45
2023/01/13 11:02:01;;;;;;;12.80;2.78;;;;;;;6.33;100.00;99551.34;5020459;28;20269;-45
2023/01/13 11:04:34;;;;;;;10.32;2.50;;;;;;;6.35;100.00;99550.34;5024364;28;20296;-48
2023/01/13 11:07:02;;;;;;;12.32;2.53;;;;;;;6.31;100.00;99534.56;5013470;28;20188;-43
2023/01/13 11:09:29;;;;;;;8.80;2.15;;;;;;;6.26;100.00;99556.03;5024078;28;20671;-44
2023/01/13 11:11:55;;;;;;;12.15;2.40;;;;;;;6.23;100.00;99552.63;5019787;28;20208;-42
2023/01/13 11:14:38;;;;;;;17.88;2.97;;;;;;;6.17;100.00;99545.78;5018637;28;20207;-50
2023/01/13 11:17:15;;;;;;;9.00;2.25;;;;;;;6.21;100.00;99557.16;5013860;28;20191;-43
2023/01/13 11:19:46;;;;;;;10.10;2.97;;;;;;;6.25;100.00;99548.13;5020192;28;20777;-43
2023/01/13 11:22:30;;;;;;;12.55;2.13;;;;;;;6.18;100.00;99550.16;5020060;28;20194;-47
2023/01/13 11:25:00;;;;;;;9.73;2.05;;;;;;;6.12;100.00;99530.03;5018167;28;20710;-43
2023/01/13 11:27:51;;;;;;;9.82;2.17;;;;;;;6.12;100.00;99537.13;5021065;28;20202;-45
2023/01/13 11:30:33;;;;;;;15.80;2.83;;;;;;;6.14;100.00;99540.56;5025458;28;20188;-46
2023/01/13 11:33:14;;;;;;;15.45;3.20;;;;;;;6.18;100.00;99542.19;5019914;28;20216;-44
2023/01/13 11:36:01;;;;;;;7.63;2.63;;;;;;;6.17;100.00;99538.66;5016711;28;20212;-45
2023/01/13 11:38:38;;;;;;;12.32;3.05;;;;;;;6.18;100.00;99523.56;5009818;28;20187;-47
2023/01/13 11:41:13;;;;;;;14.00;3.42;;;;;;;6.18;100.00;99534.22;5018584;28;20206;-45
2023/01/13 11:43:53;;;;;;;11.25;2.72;;;;;;;6.25;100.00;99542.81;5020065;28;20198;-49
2023/01/13 11:46:24;;;;;;;16.33;2.95;;;;;;;6.29;100.00;99536.44;5028425;28;20203;-43
2023/01/13 11:48:50;;;;;;;13.05;3.13;;;;;;;6.32;100.00;99537.19;5020431;28;20831;-50
2023/01/13 11:51:29;;;;;;;14.60;2.72;;;;;;;6.32;100.00;99542.50;5010628;28;20197;-45
2023/01/13 11:54:03;;;;;;;16.48;2.97;;;;;;;6.33;100.00;99543.34;5017059;28;20665;-43
2023/01/13 11:56:34;;;;;;;12.98;2.70;;;;;;;6.26;100.00;99536.56;5020153;28;20266;-52
2023/01/13 11:59:34;;;;;;;9.73;2.45;;;;;;;6.30;100.00;99540.84;5031371;28;20611;-44
2023/01/13 12:02:18;;;;;;;16.08;3.63;;;;;;;6.10;100.00;99538.97;5020980;28;20180;-43
2023/01/13 12:05:02;;;;;;;14.52;3.28;;;;;;;6.10;100.00;99546.94;5015841;28;20208;-45
2023/01/13 12:07:46;;;;;;;15.90;3.20;;;;;;;6.11;100.00;99554.88;5024248;28;20571;-45
2023/01/13 12:10:24;;;;;;;18.13;4.22;;;;;;;6.03;100.00;99564.94;5021866;28;20677;-46
2023/01/13 12:13:06;;;;;;;16.27;2.80;;;;;;;6.09;100.00;99559.38;5011877;28;20184;-45
2023/01/13 12:15:35;;;;;;;11.50;2.45;;;;;;;5.97;100.00;99550.13;5018340;28;20211;-46
2023/01/13 12:18:25;;;;;;;13.30;2.45;;;;;;;6.02;100.00;99567.69;5015018;28;20173;-43
2023/01/13 12:21:00;;;;;;;10.55;3.10;;;;;;;5.97;100.00;99560.75;5027327;28;20184;-45
2023/01/13 12:23:42;;;;;;;13.63;3.70;;;;;;;5.97;100.00;99565.22;5028224;28;20181;-48
2023/01/13 12:26:15;;;;;;;7.57;2.67;;;;;;;6.00;100.00;99565.06;5016063;28;20250;-47
2023/01/13 12:28:52;;;;;;;11.10;2.70;;;;;;;6.03;100.00;99564.94;5022988;28;20201;-44